RJOP  Komatsujima Ab Airport

Add Bookmark

Komatsujima AB, Japan

Status
Operational
Latitude Longitude
34° 0' 0" N 134° 37' 48" E
34.000000 134.630005
Local (DST + 9) UTC (GMT + 9)
Jul 26, 2014 12:05 Jul 26, 2014 03:05
Sunrise-Sunset Local UTC
Begin Civil Twilight 04:39 19:39
Sunrise 05:07 20:07
Sunset 07:08 10:08
End Civil Twilight 07:36 10:36

Current Weather

METAR Observed VFR
RJOP 250720Z 17012KT 140V200 9999 FEW030 BKN060 34/23 Q1010 Fri, Jul 25, 2014 @ 07:20 UTC
(19 Hours, 45 Minutes ago)
Visual Flight Rules

Decoded METAR

Wind Visibility Clouds Conditions
170° at 12 knots (22 kph) 10 km or more
  • Few at 3,000' AGL
  • Broken at 6,000' AGL
  • No significant weather
Temperatures Readings Precipitation
Current Temp 34°C (93°F)
Dewpoint 23°C (73°F)
Heat Index 39°C (103°F)
Humidity 53%
Altimeter 29.82"Hg
Sea Level Pressure 1010mb
Field Elevation 19.69'
None Recorded

Additional weather within a 92.6km radius of RJOP

Map ICAO Location
RJOT 61.3km W (293°)
RJBB 73.7km N (050°)
RJBD 77.4km E (119°)
RJBE 88.9km N (038°)

24 Hour Weather History

Loading
-

24 Hour Weather Graphs

Loading
-

CheckWX.com is intended as a tool to help pilots better visualize weather data. It is not intended as a substitute for an official weather briefing obtained from a Flight Service Station. CheckWX.com does not meet the FAA requirements for an official pre-flight weather briefing. Therefore, it's important that pilots still call and obtain an official FSS pre-flight weather briefing.